sensor_id;sensor_type;location;lat;lon;timestamp;P1;durP1;ratioP1;P2;durP2;ratioP2
53714;SDS011;39608;55.630;37.864;2023-03-14T00:01:48;5.05;;;2.63;;
53714;SDS011;39608;55.630;37.864;2023-03-14T00:06:51;3.63;;;2.30;;
53714;SDS011;39608;55.630;37.864;2023-03-14T00:12:11;2.30;;;1.75;;
53714;SDS011;39608;55.630;37.864;2023-03-14T00:17:33;3.88;;;1.85;;
53714;SDS011;39608;55.630;37.864;2023-03-14T00:22:56;2.83;;;1.60;;
53714;SDS011;39608;55.630;37.864;2023-03-14T00:28:16;3.78;;;1.55;;
53714;SDS011;39608;55.630;37.864;2023-03-14T00:33:37;1.85;;;1.52;;
53714;SDS011;39608;55.630;37.864;2023-03-14T00:38:59;6.22;;;1.38;;
53714;SDS011;39608;55.630;37.864;2023-03-14T00:44:19;5.05;;;1.55;;
53714;SDS011;39608;55.630;37.864;2023-03-14T00:49:40;2.20;;;1.30;;
53714;SDS011;39608;55.630;37.864;2023-03-14T00:55:04;3.63;;;1.55;;
53714;SDS011;39608;55.630;37.864;2023-03-14T01:00:07;2.83;;;1.60;;
53714;SDS011;39608;55.630;37.864;2023-03-14T01:05:12;2.15;;;1.40;;
53714;SDS011;39608;55.630;37.864;2023-03-14T01:15:18;1.33;;;1.13;;
53714;SDS011;39608;55.630;37.864;2023-03-14T01:20:20;5.95;;;2.00;;
53714;SDS011;39608;55.630;37.864;2023-03-14T01:25:42;4.13;;;2.17;;
53714;SDS011;39608;55.630;37.864;2023-03-14T01:31:03;5.07;;;2.40;;
53714;SDS011;39608;55.630;37.864;2023-03-14T01:36:05;7.70;;;2.42;;
53714;SDS011;39608;55.630;37.864;2023-03-14T01:41:12;2.17;;;1.60;;
53714;SDS011;39608;55.630;37.864;2023-03-14T01:46:24;2.22;;;1.60;;
53714;SDS011;39608;55.630;37.864;2023-03-14T01:51:37;1.15;;;0.93;;
53714;SDS011;39608;55.630;37.864;2023-03-14T01:56:46;2.88;;;1.55;;
53714;SDS011;39608;55.630;37.864;2023-03-14T02:01:53;2.28;;;1.50;;
53714;SDS011;39608;55.630;37.864;2023-03-14T02:06:58;1.33;;;1.23;;
53714;SDS011;39608;55.630;37.864;2023-03-14T02:12:06;3.17;;;1.67;;
53714;SDS011;39608;55.630;37.864;2023-03-14T02:17:09;1.27;;;1.08;;
53714;SDS011;39608;55.630;37.864;2023-03-14T02:22:12;1.77;;;1.55;;
53714;SDS011;39608;55.630;37.864;2023-03-14T02:27:17;5.22;;;1.70;;
53714;SDS011;39608;55.630;37.864;2023-03-14T02:32:20;2.90;;;1.60;;
53714;SDS011;39608;55.630;37.864;2023-03-14T02:37:24;3.50;;;1.70;;
53714;SDS011;39608;55.630;37.864;2023-03-14T02:42:36;1.83;;;1.60;;
53714;SDS011;39608;55.630;37.864;2023-03-14T02:47:39;2.83;;;1.75;;
53714;SDS011;39608;55.630;37.864;2023-03-14T02:52:47;2.40;;;1.95;;
53714;SDS011;39608;55.630;37.864;2023-03-14T02:57:51;3.15;;;2.00;;
53714;SDS011;39608;55.630;37.864;2023-03-14T03:02:53;3.60;;;2.45;;
53714;SDS011;39608;55.630;37.864;2023-03-14T03:07:55;3.50;;;2.53;;
53714;SDS011;39608;55.630;37.864;2023-03-14T03:12:58;4.38;;;2.63;;
53714;SDS011;39608;55.630;37.864;2023-03-14T03:18:00;4.43;;;2.67;;
53714;SDS011;39608;55.630;37.864;2023-03-14T03:23:02;2.53;;;1.88;;
53714;SDS011;39608;55.630;37.864;2023-03-14T03:28:07;4.63;;;2.58;;
53714;SDS011;39608;55.630;37.864;2023-03-14T03:33:09;3.30;;;2.22;;
53714;SDS011;39608;55.630;37.864;2023-03-14T03:38:12;6.88;;;2.67;;
53714;SDS011;39608;55.630;37.864;2023-03-14T03:43:16;4.07;;;2.33;;
53714;SDS011;39608;55.630;37.864;2023-03-14T03:48:18;3.80;;;2.53;;
53714;SDS011;39608;55.630;37.864;2023-03-14T03:53:20;7.05;;;3.35;;
53714;SDS011;39608;55.630;37.864;2023-03-14T03:58:24;4.35;;;2.33;;
53714;SDS011;39608;55.630;37.864;2023-03-14T04:03:26;3.65;;;2.67;;
53714;SDS011;39608;55.630;37.864;2023-03-14T04:08:28;8.23;;;2.33;;
53714;SDS011;39608;55.630;37.864;2023-03-14T04:13:31;6.80;;;1.95;;
53714;SDS011;39608;55.630;37.864;2023-03-14T04:18:33;3.50;;;2.42;;
53714;SDS011;39608;55.630;37.864;2023-03-14T04:23:35;3.97;;;1.95;;
53714;SDS011;39608;55.630;37.864;2023-03-14T04:28:39;2.50;;;2.13;;
53714;SDS011;39608;55.630;37.864;2023-03-14T04:33:41;6.30;;;2.42;;
53714;SDS011;39608;55.630;37.864;2023-03-14T04:38:43;4.05;;;2.13;;
53714;SDS011;39608;55.630;37.864;2023-03-14T04:43:46;7.68;;;2.25;;
53714;SDS011;39608;55.630;37.864;2023-03-14T04:48:48;2.70;;;2.22;;
53714;SDS011;39608;55.630;37.864;2023-03-14T04:53:50;4.22;;;2.50;;
53714;SDS011;39608;55.630;37.864;2023-03-14T04:58:54;3.15;;;2.08;;
53714;SDS011;39608;55.630;37.864;2023-03-14T05:03:57;5.65;;;2.53;;
53714;SDS011;39608;55.630;37.864;2023-03-14T05:08:59;3.30;;;2.20;;
53714;SDS011;39608;55.630;37.864;2023-03-14T05:14:03;3.95;;;2.45;;
53714;SDS011;39608;55.630;37.864;2023-03-14T05:19:05;5.07;;;2.08;;
53714;SDS011;39608;55.630;37.864;2023-03-14T05:24:07;5.28;;;2.58;;
53714;SDS011;39608;55.630;37.864;2023-03-14T05:29:11;4.00;;;1.90;;
53714;SDS011;39608;55.630;37.864;2023-03-14T05:34:13;4.78;;;2.53;;
53714;SDS011;39608;55.630;37.864;2023-03-14T05:39:15;2.33;;;1.73;;
53714;SDS011;39608;55.630;37.864;2023-03-14T05:44:18;3.80;;;2.35;;
53714;SDS011;39608;55.630;37.864;2023-03-14T05:49:20;3.45;;;2.70;;
53714;SDS011;39608;55.630;37.864;2023-03-14T05:54:22;3.75;;;2.47;;
53714;SDS011;39608;55.630;37.864;2023-03-14T05:59:26;5.70;;;2.65;;
53714;SDS011;39608;55.630;37.864;2023-03-14T06:04:28;3.90;;;2.90;;
53714;SDS011;39608;55.630;37.864;2023-03-14T06:09:30;5.80;;;3.13;;
53714;SDS011;39608;55.630;37.864;2023-03-14T06:14:33;4.85;;;2.72;;
53714;SDS011;39608;55.630;37.864;2023-03-14T06:19:35;5.72;;;2.47;;
53714;SDS011;39608;55.630;37.864;2023-03-14T06:24:37;3.22;;;1.98;;
53714;SDS011;39608;55.630;37.864;2023-03-14T06:29:40;6.13;;;2.75;;
53714;SDS011;39608;55.630;37.864;2023-03-14T06:34:42;4.03;;;2.55;;
53714;SDS011;39608;55.630;37.864;2023-03-14T06:39:44;5.60;;;2.20;;
53714;SDS011;39608;55.630;37.864;2023-03-14T06:44:48;4.43;;;2.42;;
53714;SDS011;39608;55.630;37.864;2023-03-14T06:49:50;3.80;;;1.98;;
53714;SDS011;39608;55.630;37.864;2023-03-14T06:54:52;3.38;;;2.20;;
53714;SDS011;39608;55.630;37.864;2023-03-14T06:59:55;5.95;;;2.65;;
53714;SDS011;39608;55.630;37.864;2023-03-14T07:04:58;2.15;;;1.75;;
53714;SDS011;39608;55.630;37.864;2023-03-14T07:10:01;7.00;;;2.17;;
53714;SDS011;39608;55.630;37.864;2023-03-14T07:15:05;11.77;;;2.85;;
53714;SDS011;39608;55.630;37.864;2023-03-14T07:20:08;5.45;;;2.38;;
53714;SDS011;39608;55.630;37.864;2023-03-14T07:25:11;4.65;;;2.67;;
53714;SDS011;39608;55.630;37.864;2023-03-14T07:30:14;4.50;;;2.03;;
53714;SDS011;39608;55.630;37.864;2023-03-14T07:35:17;4.03;;;1.95;;
53714;SDS011;39608;55.630;37.864;2023-03-14T07:40:19;3.70;;;2.28;;
53714;SDS011;39608;55.630;37.864;2023-03-14T07:45:24;3.42;;;2.10;;
53714;SDS011;39608;55.630;37.864;2023-03-14T07:50:27;3.53;;;2.08;;
53714;SDS011;39608;55.630;37.864;2023-03-14T07:55:29;6.55;;;2.40;;
53714;SDS011;39608;55.630;37.864;2023-03-14T08:00:33;4.80;;;2.38;;
53714;SDS011;39608;55.630;37.864;2023-03-14T08:05:35;7.40;;;2.92;;
53714;SDS011;39608;55.630;37.864;2023-03-14T08:10:37;4.80;;;2.47;;
53714;SDS011;39608;55.630;37.864;2023-03-14T08:15:40;3.30;;;2.38;;
53714;SDS011;39608;55.630;37.864;2023-03-14T08:20:42;4.38;;;2.28;;
53714;SDS011;39608;55.630;37.864;2023-03-14T08:25:44;3.45;;;2.30;;
53714;SDS011;39608;55.630;37.864;2023-03-14T08:30:48;5.20;;;2.50;;
53714;SDS011;39608;55.630;37.864;2023-03-14T08:35:51;5.45;;;2.55;;
53714;SDS011;39608;55.630;37.864;2023-03-14T08:40:56;4.55;;;2.60;;
53714;SDS011;39608;55.630;37.864;2023-03-14T08:46:00;6.25;;;2.38;;
53714;SDS011;39608;55.630;37.864;2023-03-14T08:51:06;2.92;;;2.08;;
53714;SDS011;39608;55.630;37.864;2023-03-14T08:56:10;4.50;;;2.45;;
53714;SDS011;39608;55.630;37.864;2023-03-14T09:01:14;3.80;;;2.20;;
53714;SDS011;39608;55.630;37.864;2023-03-14T09:06:16;6.45;;;2.42;;
53714;SDS011;39608;55.630;37.864;2023-03-14T09:11:18;4.30;;;2.15;;
53714;SDS011;39608;55.630;37.864;2023-03-14T09:16:21;4.40;;;2.33;;
53714;SDS011;39608;55.630;37.864;2023-03-14T09:21:23;4.07;;;2.33;;
53714;SDS011;39608;55.630;37.864;2023-03-14T09:26:25;3.67;;;2.38;;
53714;SDS011;39608;55.630;37.864;2023-03-14T09:31:29;5.65;;;2.72;;
53714;SDS011;39608;55.630;37.864;2023-03-14T09:36:31;4.85;;;2.85;;
53714;SDS011;39608;55.630;37.864;2023-03-14T09:41:33;7.57;;;2.67;;
53714;SDS011;39608;55.630;37.864;2023-03-14T09:46:39;3.75;;;2.38;;
53714;SDS011;39608;55.630;37.864;2023-03-14T09:51:44;5.78;;;2.53;;
53714;SDS011;39608;55.630;37.864;2023-03-14T09:56:49;5.03;;;2.60;;
53714;SDS011;39608;55.630;37.864;2023-03-14T10:01:55;4.03;;;2.55;;
53714;SDS011;39608;55.630;37.864;2023-03-14T10:06:59;6.05;;;2.97;;
53714;SDS011;39608;55.630;37.864;2023-03-14T10:12:01;4.63;;;2.40;;
53714;SDS011;39608;55.630;37.864;2023-03-14T10:17:08;4.05;;;2.40;;
53714;SDS011;39608;55.630;37.864;2023-03-14T10:22:12;7.05;;;2.97;;
53714;SDS011;39608;55.630;37.864;2023-03-14T10:27:18;3.90;;;2.33;;
53714;SDS011;39608;55.630;37.864;2023-03-14T10:32:29;6.78;;;2.78;;
53714;SDS011;39608;55.630;37.864;2023-03-14T10:37:35;4.32;;;2.55;;
53714;SDS011;39608;55.630;37.864;2023-03-14T10:42:39;5.78;;;3.10;;
53714;SDS011;39608;55.630;37.864;2023-03-14T10:47:49;6.55;;;2.65;;
53714;SDS011;39608;55.630;37.864;2023-03-14T10:52:52;4.05;;;2.83;;
53714;SDS011;39608;55.630;37.864;2023-03-14T10:57:55;7.05;;;3.05;;
53714;SDS011;39608;55.630;37.864;2023-03-14T11:03:06;6.85;;;2.60;;
53714;SDS011;39608;55.630;37.864;2023-03-14T11:08:12;4.88;;;3.10;;
53714;SDS011;39608;55.630;37.864;2023-03-14T11:13:22;4.13;;;2.72;;
53714;SDS011;39608;55.630;37.864;2023-03-14T11:18:34;3.97;;;2.65;;
53714;SDS011;39608;55.630;37.864;2023-03-14T11:23:51;7.38;;;2.97;;
53714;SDS011;39608;55.630;37.864;2023-03-14T11:29:02;4.22;;;3.08;;
53714;SDS011;39608;55.630;37.864;2023-03-14T11:34:22;3.60;;;2.35;;
53714;SDS011;39608;55.630;37.864;2023-03-14T11:39:34;4.00;;;2.50;;
53714;SDS011;39608;55.630;37.864;2023-03-14T11:44:40;7.35;;;3.08;;
53714;SDS011;39608;55.630;37.864;2023-03-14T11:49:46;3.75;;;2.70;;
53714;SDS011;39608;55.630;37.864;2023-03-14T11:54:53;5.05;;;2.72;;
53714;SDS011;39608;55.630;37.864;2023-03-14T11:59:58;3.08;;;2.42;;
53714;SDS011;39608;55.630;37.864;2023-03-14T12:05:31;5.90;;;2.90;;
53714;SDS011;39608;55.630;37.864;2023-03-14T12:10:54;5.90;;;3.22;;
53714;SDS011;39608;55.630;37.864;2023-03-14T12:16:00;5.72;;;3.03;;
53714;SDS011;39608;55.630;37.864;2023-03-14T12:21:08;5.87;;;3.27;;
53714;SDS011;39608;55.630;37.864;2023-03-14T12:26:13;4.82;;;3.00;;
53714;SDS011;39608;55.630;37.864;2023-03-14T12:36:56;4.10;;;2.88;;
53714;SDS011;39608;55.630;37.864;2023-03-14T12:42:08;11.18;;;3.38;;
53714;SDS011;39608;55.630;37.864;2023-03-14T12:52:54;3.85;;;2.80;;
53714;SDS011;39608;55.630;37.864;2023-03-14T12:58:31;4.30;;;2.95;;
53714;SDS011;39608;55.630;37.864;2023-03-14T13:03:37;4.10;;;2.80;;
53714;SDS011;39608;55.630;37.864;2023-03-14T13:08:46;4.95;;;3.20;;
53714;SDS011;39608;55.630;37.864;2023-03-14T13:13:56;4.65;;;2.92;;
53714;SDS011;39608;55.630;37.864;2023-03-14T13:18:59;5.13;;;3.00;;
53714;SDS011;39608;55.630;37.864;2023-03-14T13:24:06;5.25;;;3.00;;
53714;SDS011;39608;55.630;37.864;2023-03-14T13:29:20;7.03;;;3.00;;
53714;SDS011;39608;55.630;37.864;2023-03-14T13:34:24;6.57;;;2.95;;
53714;SDS011;39608;55.630;37.864;2023-03-14T13:39:28;5.78;;;3.03;;
53714;SDS011;39608;55.630;37.864;2023-03-14T13:44:31;4.80;;;2.88;;
53714;SDS011;39608;55.630;37.864;2023-03-14T13:49:35;5.60;;;3.03;;
53714;SDS011;39608;55.630;37.864;2023-03-14T13:54:41;3.35;;;2.85;;
53714;SDS011;39608;55.630;37.864;2023-03-14T13:59:43;7.32;;;3.45;;
53714;SDS011;39608;55.630;37.864;2023-03-14T14:04:45;8.75;;;3.05;;
53714;SDS011;39608;55.630;37.864;2023-03-14T14:09:50;5.25;;;2.75;;
53714;SDS011;39608;55.630;37.864;2023-03-14T14:14:55;5.28;;;2.92;;
53714;SDS011;39608;55.630;37.864;2023-03-14T14:20:03;6.63;;;3.50;;
53714;SDS011;39608;55.630;37.864;2023-03-14T14:25:13;7.32;;;3.40;;
53714;SDS011;39608;55.630;37.864;2023-03-14T14:30:27;5.55;;;3.00;;
53714;SDS011;39608;55.630;37.864;2023-03-14T14:35:32;7.63;;;3.25;;
53714;SDS011;39608;55.630;37.864;2023-03-14T14:40:40;7.45;;;3.05;;
53714;SDS011;39608;55.630;37.864;2023-03-14T14:45:46;9.80;;;3.67;;
53714;SDS011;39608;55.630;37.864;2023-03-14T14:50:54;6.25;;;3.30;;
53714;SDS011;39608;55.630;37.864;2023-03-14T14:56:04;5.00;;;3.17;;
53714;SDS011;39608;55.630;37.864;2023-03-14T15:01:10;8.02;;;3.55;;
53714;SDS011;39608;55.630;37.864;2023-03-14T15:06:15;5.97;;;3.15;;
53714;SDS011;39608;55.630;37.864;2023-03-14T15:11:20;9.95;;;3.22;;
53714;SDS011;39608;55.630;37.864;2023-03-14T15:16:27;6.90;;;3.45;;
53714;SDS011;39608;55.630;37.864;2023-03-14T15:21:31;6.22;;;2.97;;
53714;SDS011;39608;55.630;37.864;2023-03-14T15:26:34;8.13;;;3.65;;
53714;SDS011;39608;55.630;37.864;2023-03-14T15:31:36;6.55;;;3.00;;
53714;SDS011;39608;55.630;37.864;2023-03-14T15:36:39;6.38;;;3.47;;
53714;SDS011;39608;55.630;37.864;2023-03-14T15:41:42;5.22;;;3.35;;
53714;SDS011;39608;55.630;37.864;2023-03-14T15:46:44;5.85;;;3.70;;
53714;SDS011;39608;55.630;37.864;2023-03-14T15:51:49;5.85;;;3.58;;
53714;SDS011;39608;55.630;37.864;2023-03-14T15:56:52;8.75;;;3.67;;
53714;SDS011;39608;55.630;37.864;2023-03-14T16:01:54;7.97;;;4.50;;
53714;SDS011;39608;55.630;37.864;2023-03-14T16:06:58;7.78;;;3.85;;
53714;SDS011;39608;55.630;37.864;2023-03-14T16:12:01;7.95;;;3.95;;
53714;SDS011;39608;55.630;37.864;2023-03-14T16:17:05;5.38;;;3.75;;
53714;SDS011;39608;55.630;37.864;2023-03-14T16:22:10;6.38;;;4.07;;
53714;SDS011;39608;55.630;37.864;2023-03-14T16:27:14;7.50;;;3.50;;
53714;SDS011;39608;55.630;37.864;2023-03-14T16:32:16;6.35;;;3.75;;
53714;SDS011;39608;55.630;37.864;2023-03-14T16:37:18;4.35;;;2.70;;
53714;SDS011;39608;55.630;37.864;2023-03-14T16:42:22;12.57;;;3.55;;
53714;SDS011;39608;55.630;37.864;2023-03-14T16:47:25;8.93;;;3.53;;
53714;SDS011;39608;55.630;37.864;2023-03-14T16:52:29;7.07;;;3.45;;
53714;SDS011;39608;55.630;37.864;2023-03-14T16:57:32;6.07;;;3.50;;
53714;SDS011;39608;55.630;37.864;2023-03-14T17:02:35;6.72;;;3.40;;
53714;SDS011;39608;55.630;37.864;2023-03-14T17:07:37;5.18;;;2.70;;
53714;SDS011;39608;55.630;37.864;2023-03-14T17:12:41;8.45;;;3.40;;
53714;SDS011;39608;55.630;37.864;2023-03-14T17:17:45;8.85;;;3.83;;
53714;SDS011;39608;55.630;37.864;2023-03-14T17:22:47;7.78;;;3.42;;
53714;SDS011;39608;55.630;37.864;2023-03-14T17:27:50;4.63;;;3.08;;
53714;SDS011;39608;55.630;37.864;2023-03-14T17:32:52;3.97;;;2.30;;
53714;SDS011;39608;55.630;37.864;2023-03-14T17:37:54;3.70;;;2.55;;
53714;SDS011;39608;55.630;37.864;2023-03-14T17:42:58;8.80;;;2.83;;
53714;SDS011;39608;55.630;37.864;2023-03-14T17:48:00;3.10;;;2.28;;
53714;SDS011;39608;55.630;37.864;2023-03-14T17:53:03;5.93;;;2.72;;
53714;SDS011;39608;55.630;37.864;2023-03-14T17:58:07;3.88;;;2.50;;
53714;SDS011;39608;55.630;37.864;2023-03-14T18:03:09;4.68;;;2.33;;
53714;SDS011;39608;55.630;37.864;2023-03-14T18:08:12;4.90;;;2.40;;
53714;SDS011;39608;55.630;37.864;2023-03-14T18:13:16;4.28;;;2.67;;
53714;SDS011;39608;55.630;37.864;2023-03-14T18:18:18;2.83;;;2.10;;
53714;SDS011;39608;55.630;37.864;2023-03-14T18:23:20;4.53;;;2.38;;
53714;SDS011;39608;55.630;37.864;2023-03-14T18:28:24;8.02;;;2.65;;
53714;SDS011;39608;55.630;37.864;2023-03-14T18:33:26;5.07;;;1.80;;
53714;SDS011;39608;55.630;37.864;2023-03-14T18:38:28;2.75;;;1.95;;
53714;SDS011;39608;55.630;37.864;2023-03-14T18:43:31;4.25;;;2.28;;
53714;SDS011;39608;55.630;37.864;2023-03-14T18:48:34;4.57;;;2.00;;
53714;SDS011;39608;55.630;37.864;2023-03-14T18:53:41;4.40;;;1.52;;
53714;SDS011;39608;55.630;37.864;2023-03-14T18:58:45;3.95;;;1.88;;
53714;SDS011;39608;55.630;37.864;2023-03-14T19:03:47;2.00;;;1.52;;
53714;SDS011;39608;55.630;37.864;2023-03-14T19:08:49;2.08;;;1.40;;
53714;SDS011;39608;55.630;37.864;2023-03-14T19:13:53;6.72;;;1.85;;
53714;SDS011;39608;55.630;37.864;2023-03-14T19:18:56;2.05;;;1.60;;
53714;SDS011;39608;55.630;37.864;2023-03-14T19:23:58;2.80;;;1.40;;
53714;SDS011;39608;55.630;37.864;2023-03-14T19:29:03;2.92;;;1.60;;
53714;SDS011;39608;55.630;37.864;2023-03-14T19:34:06;5.18;;;1.58;;
53714;SDS011;39608;55.630;37.864;2023-03-14T19:39:08;3.70;;;1.52;;
53714;SDS011;39608;55.630;37.864;2023-03-14T19:44:11;2.78;;;1.55;;
53714;SDS011;39608;55.630;37.864;2023-03-14T19:49:13;7.82;;;1.95;;
53714;SDS011;39608;55.630;37.864;2023-03-14T19:54:15;3.38;;;1.48;;
53714;SDS011;39608;55.630;37.864;2023-03-14T19:59:19;1.90;;;1.52;;
53714;SDS011;39608;55.630;37.864;2023-03-14T20:04:21;4.72;;;1.95;;
53714;SDS011;39608;55.630;37.864;2023-03-14T20:09:24;10.93;;;3.17;;
53714;SDS011;39608;55.630;37.864;2023-03-14T20:14:28;5.55;;;2.88;;
53714;SDS011;39608;55.630;37.864;2023-03-14T20:19:30;4.55;;;2.03;;
53714;SDS011;39608;55.630;37.864;2023-03-14T20:24:32;5.05;;;1.92;;
53714;SDS011;39608;55.630;37.864;2023-03-14T20:29:35;3.28;;;1.75;;
53714;SDS011;39608;55.630;37.864;2023-03-14T20:34:37;6.70;;;1.90;;
53714;SDS011;39608;55.630;37.864;2023-03-14T20:39:40;3.92;;;1.35;;
53714;SDS011;39608;55.630;37.864;2023-03-14T20:44:43;1.65;;;1.02;;
53714;SDS011;39608;55.630;37.864;2023-03-14T20:49:46;3.03;;;1.17;;
53714;SDS011;39608;55.630;37.864;2023-03-14T20:54:48;2.25;;;1.60;;
53714;SDS011;39608;55.630;37.864;2023-03-14T20:59:51;2.58;;;1.50;;
53714;SDS011;39608;55.630;37.864;2023-03-14T21:04:55;9.75;;;1.50;;
53714;SDS011;39608;55.630;37.864;2023-03-14T21:09:57;4.55;;;1.33;;
53714;SDS011;39608;55.630;37.864;2023-03-14T21:15:01;3.72;;;1.70;;
53714;SDS011;39608;55.630;37.864;2023-03-14T21:20:04;3.58;;;1.50;;
53714;SDS011;39608;55.630;37.864;2023-03-14T21:25:08;5.13;;;1.77;;
53714;SDS011;39608;55.630;37.864;2023-03-14T21:30:12;2.25;;;1.27;;
53714;SDS011;39608;55.630;37.864;2023-03-14T21:35:15;1.73;;;1.17;;
53714;SDS011;39608;55.630;37.864;2023-03-14T21:40:17;4.47;;;1.45;;
53714;SDS011;39608;55.630;37.864;2023-03-14T21:45:22;4.85;;;1.67;;
53714;SDS011;39608;55.630;37.864;2023-03-14T21:50:26;2.15;;;1.55;;
53714;SDS011;39608;55.630;37.864;2023-03-14T21:55:28;2.55;;;1.48;;
53714;SDS011;39608;55.630;37.864;2023-03-14T22:00:32;2.83;;;1.60;;
53714;SDS011;39608;55.630;37.864;2023-03-14T22:05:35;1.70;;;1.42;;
53714;SDS011;39608;55.630;37.864;2023-03-14T22:10:41;2.38;;;1.13;;
53714;SDS011;39608;55.630;37.864;2023-03-14T22:15:46;1.55;;;1.30;;
53714;SDS011;39608;55.630;37.864;2023-03-14T22:20:48;2.28;;;1.73;;
53714;SDS011;39608;55.630;37.864;2023-03-14T22:25:50;1.80;;;1.15;;
53714;SDS011;39608;55.630;37.864;2023-03-14T22:30:54;3.13;;;1.60;;
53714;SDS011;39608;55.630;37.864;2023-03-14T22:35:56;4.15;;;1.65;;
53714;SDS011;39608;55.630;37.864;2023-03-14T22:40:58;3.10;;;1.60;;
53714;SDS011;39608;55.630;37.864;2023-03-14T22:46:03;8.43;;;1.77;;
53714;SDS011;39608;55.630;37.864;2023-03-14T22:51:08;2.45;;;1.42;;
53714;SDS011;39608;55.630;37.864;2023-03-14T22:56:11;3.20;;;1.52;;
53714;SDS011;39608;55.630;37.864;2023-03-14T23:01:15;4.47;;;2.15;;
53714;SDS011;39608;55.630;37.864;2023-03-14T23:06:17;4.10;;;2.38;;
53714;SDS011;39608;55.630;37.864;2023-03-14T23:11:19;3.85;;;1.90;;
53714;SDS011;39608;55.630;37.864;2023-03-14T23:16:22;3.85;;;2.05;;
53714;SDS011;39608;55.630;37.864;2023-03-14T23:21:24;3.17;;;1.60;;
53714;SDS011;39608;55.630;37.864;2023-03-14T23:26:27;3.90;;;1.65;;
53714;SDS011;39608;55.630;37.864;2023-03-14T23:31:32;3.05;;;1.42;;
53714;SDS011;39608;55.630;37.864;2023-03-14T23:36:34;6.32;;;2.08;;
53714;SDS011;39608;55.630;37.864;2023-03-14T23:41:36;8.65;;;2.25;;
53714;SDS011;39608;55.630;37.864;2023-03-14T23:46:39;2.13;;;1.63;;
53714;SDS011;39608;55.630;37.864;2023-03-14T23:51:41;4.65;;;2.22;;
53714;SDS011;39608;55.630;37.864;2023-03-14T23:56:43;4.32;;;1.83;;
